createdAt,value
2023-02-08T00:01:24.251Z,3.00
2023-02-08T00:03:53.052Z,3.15
2023-02-08T00:06:21.634Z,3.26
2023-02-08T00:08:49.543Z,3.20
2023-02-08T00:11:18.015Z,3.09
2023-02-08T00:13:45.932Z,3.20
2023-02-08T00:16:15.315Z,3.15
2023-02-08T00:18:43.542Z,3.00
2023-02-08T00:21:16.310Z,2.91
2023-02-08T00:23:44.868Z,2.92
2023-02-08T00:26:13.374Z,3.04
2023-02-08T00:28:42.564Z,3.15
2023-02-08T00:31:11.305Z,3.09
2023-02-08T00:33:39.320Z,3.03
2023-02-08T00:36:09.089Z,3.01
2023-02-08T00:38:37.060Z,3.13
2023-02-08T00:41:06.299Z,2.90
2023-02-08T00:43:34.661Z,3.07
2023-02-08T00:46:04.484Z,2.89
2023-02-08T00:48:33.549Z,2.85
2023-02-08T00:51:07.776Z,2.70
2023-02-08T00:53:37.400Z,2.92
2023-02-08T00:56:08.369Z,2.85
2023-02-08T00:58:36.946Z,2.96
2023-02-08T01:01:06.274Z,2.76
2023-02-08T01:03:36.558Z,2.87
2023-02-08T01:06:08.226Z,2.82
2023-02-08T01:08:36.807Z,2.58
2023-02-08T01:11:07.347Z,2.75
2023-02-08T01:13:36.712Z,2.81
2023-02-08T01:16:10.087Z,2.77
2023-02-08T01:18:39.868Z,3.06
2023-02-08T01:21:13.661Z,3.01
2023-02-08T01:23:42.817Z,3.01
2023-02-08T01:26:15.169Z,3.12
2023-02-08T01:28:44.199Z,3.01
2023-02-08T01:31:15.684Z,2.97
2023-02-08T01:33:43.667Z,3.03
2023-02-08T01:36:12.399Z,3.08
2023-02-08T01:38:44.286Z,2.96
2023-02-08T01:41:35.456Z,2.91
2023-02-08T01:44:12.190Z,2.99
2023-02-08T01:46:51.358Z,2.88
2023-02-08T01:49:36.548Z,2.94
2023-02-08T01:52:14.748Z,2.87
2023-02-08T01:54:51.986Z,2.84
2023-02-08T01:57:21.388Z,2.89
2023-02-08T01:59:59.364Z,2.82
2023-02-08T02:02:28.283Z,3.10
2023-02-08T02:04:56.497Z,3.24
2023-02-08T02:07:28.904Z,3.34
2023-02-08T02:10:04.431Z,3.76
2023-02-08T02:12:34.025Z,4.03
2023-02-08T02:15:03.742Z,4.03
2023-02-08T02:17:32.036Z,4.17
2023-02-08T02:20:24.818Z,4.13
2023-02-08T02:23:32.056Z,4.22
2023-02-08T02:26:25.266Z,4.18
2023-02-08T02:28:59.570Z,4.17
2023-02-08T02:32:05.606Z,4.13
2023-02-08T02:34:47.006Z,4.17
2023-02-08T02:37:53.508Z,4.33
2023-02-08T02:40:42.636Z,4.42
2023-02-08T02:43:38.776Z,4.43
2023-02-08T02:46:24.785Z,4.57
2023-02-08T02:49:09.951Z,4.47
2023-02-08T02:51:46.691Z,4.38
2023-02-08T02:54:17.815Z,4.40
2023-02-08T02:56:50.602Z,4.54
2023-02-08T02:59:20.341Z,4.40
2023-02-08T03:01:49.174Z,4.45
2023-02-08T03:04:20.304Z,4.37
2023-02-08T03:07:13.408Z,4.35
2023-02-08T03:09:56.346Z,4.32
2023-02-08T03:12:39.864Z,4.30
2023-02-08T03:15:13.538Z,4.17
2023-02-08T03:18:17.325Z,4.36
2023-02-08T03:21:09.683Z,4.36
2023-02-08T03:24:04.987Z,4.30
2023-02-08T03:26:57.867Z,4.22
2023-02-08T03:29:48.478Z,4.25
2023-02-08T03:32:42.064Z,4.30
2023-02-08T03:35:37.711Z,4.03
2023-02-08T03:38:13.712Z,3.93
2023-02-08T03:40:49.835Z,3.83
2023-02-08T03:43:43.315Z,3.73
2023-02-08T03:47:02.913Z,3.93
2023-02-08T03:49:36.811Z,3.70
2023-02-08T03:52:09.437Z,3.55
2023-02-08T03:54:49.386Z,3.61
2023-02-08T03:57:25.937Z,3.70
2023-02-08T04:00:08.693Z,3.61
2023-02-08T04:02:55.715Z,3.67
2023-02-08T04:05:24.745Z,3.81
2023-02-08T04:07:53.426Z,3.83
2023-02-08T04:10:21.488Z,3.55
2023-02-08T04:12:49.953Z,3.46
2023-02-08T04:15:18.524Z,3.50
2023-02-08T04:17:46.764Z,3.35
2023-02-08T04:20:14.648Z,3.17
2023-02-08T04:22:46.082Z,3.20
2023-02-08T04:29:44.445Z,3.01
2023-02-08T04:32:13.646Z,2.91
2023-02-08T04:34:42.008Z,3.15
2023-02-08T04:37:10.248Z,3.29
2023-02-08T04:39:38.910Z,3.36
2023-02-08T04:42:07.169Z,3.43
2023-02-08T04:44:36.044Z,3.54
2023-02-08T04:47:04.320Z,3.63
2023-02-08T04:49:32.782Z,3.53
2023-02-08T04:52:00.751Z,3.62
2023-02-08T04:54:29.082Z,3.48
2023-02-08T04:56:57.102Z,3.39
2023-02-08T04:59:25.404Z,3.57
2023-02-08T05:01:53.501Z,3.49
2023-02-08T05:04:21.838Z,3.41
2023-02-08T05:06:49.932Z,3.30
2023-02-08T05:09:18.386Z,3.28
2023-02-08T05:11:46.379Z,3.28
2023-02-08T05:14:14.758Z,3.31
2023-02-08T05:16:42.714Z,3.15
2023-02-08T05:19:14.706Z,2.80
2023-02-08T05:21:42.739Z,2.59
2023-02-08T05:24:12.923Z,2.57
2023-02-08T05:26:41.547Z,2.27
2023-02-08T05:29:10.967Z,2.13
2023-02-08T05:31:39.157Z,2.21
2023-02-08T05:34:07.580Z,2.44
2023-02-08T05:36:35.626Z,2.26
2023-02-08T05:39:04.210Z,1.95
2023-02-08T05:41:32.579Z,2.20
2023-02-08T05:44:00.819Z,2.32
2023-02-08T05:46:28.839Z,1.96
2023-02-08T05:48:57.056Z,2.09
2023-02-08T05:51:24.940Z,1.87
2023-02-08T05:53:53.096Z,1.76
2023-02-08T05:56:21.547Z,1.88
2023-02-08T05:58:49.789Z,1.57
2023-02-08T06:01:18.826Z,1.62
2023-02-08T06:03:47.024Z,1.70
2023-02-08T06:06:15.148Z,1.86
2023-02-08T06:08:43.498Z,1.70
2023-02-08T06:11:11.501Z,1.72
2023-02-08T06:13:40.130Z,1.62
2023-02-08T06:16:08.579Z,1.77
2023-02-08T06:18:36.850Z,1.89
2023-02-08T06:21:05.050Z,1.90
2023-02-08T06:23:33.452Z,1.96
2023-02-08T06:26:01.368Z,2.00
2023-02-08T06:28:29.682Z,1.79
2023-02-08T06:30:57.561Z,1.73
2023-02-08T06:33:25.731Z,1.64
2023-02-08T06:35:53.990Z,1.96
2023-02-08T06:38:22.667Z,1.91
2023-02-08T06:40:50.968Z,2.04
2023-02-08T06:43:19.542Z,1.90
2023-02-08T06:45:47.823Z,1.75
2023-02-08T06:48:16.237Z,1.69
2023-02-08T06:50:44.471Z,1.84
2023-02-08T06:53:12.894Z,2.02
2023-02-08T06:55:40.998Z,2.08
2023-02-08T06:58:10.050Z,1.96
2023-02-08T07:00:39.478Z,2.16
2023-02-08T07:03:09.440Z,1.96
2023-02-08T07:05:37.922Z,2.11
2023-02-08T07:08:07.186Z,1.98
2023-02-08T07:10:35.391Z,2.08
2023-02-08T07:13:03.775Z,2.19
2023-02-08T07:15:32.374Z,2.11
2023-02-08T07:18:00.911Z,2.21
2023-02-08T07:20:29.118Z,2.22
2023-02-08T07:22:57.772Z,2.69
2023-02-08T07:25:25.865Z,2.40
2023-02-08T07:27:54.104Z,2.84
2023-02-08T07:30:22.054Z,2.61
2023-02-08T07:32:50.293Z,2.81
2023-02-08T07:35:18.566Z,3.10
2023-02-08T07:37:47.126Z,3.19
2023-02-08T07:40:15.171Z,3.22
2023-02-08T07:42:43.421Z,3.35
2023-02-08T07:45:26.357Z,3.63
2023-02-08T07:47:54.715Z,3.70
2023-02-08T07:50:22.640Z,3.54
2023-02-08T07:52:50.837Z,3.95
2023-02-08T07:55:20.788Z,4.13
2023-02-08T07:57:50.497Z,3.85
2023-02-08T08:00:19.637Z,4.34
2023-02-08T08:02:51.009Z,4.34
2023-02-08T08:05:19.194Z,4.29
2023-02-08T08:07:47.664Z,4.25
2023-02-08T08:10:15.547Z,4.20
2023-02-08T08:12:44.156Z,4.52
2023-02-08T08:15:12.211Z,4.73
2023-02-08T08:17:42.521Z,4.88
2023-02-08T08:20:11.917Z,5.51
2023-02-08T08:22:40.268Z,5.49
2023-02-08T08:25:08.451Z,5.88
2023-02-08T08:27:36.788Z,5.99
2023-02-08T08:30:11.378Z,5.82
2023-02-08T08:32:40.129Z,6.21
2023-02-08T08:35:09.218Z,6.05
2023-02-08T08:37:38.032Z,6.23
2023-02-08T08:40:08.058Z,6.79
2023-02-08T08:42:36.867Z,7.05
2023-02-08T08:45:05.036Z,7.08
2023-02-08T08:47:33.727Z,7.41
2023-02-08T08:50:01.977Z,7.28
2023-02-08T08:52:30.300Z,7.33
2023-02-08T08:54:58.405Z,7.47
2023-02-08T08:57:26.708Z,7.62
2023-02-08T08:59:54.597Z,7.40
2023-02-08T09:02:23.275Z,7.60
2023-02-08T09:04:51.405Z,7.90
2023-02-08T09:07:19.718Z,7.73
2023-02-08T09:09:48.274Z,7.91
2023-02-08T09:12:16.632Z,8.07
2023-02-08T09:14:45.163Z,8.12
2023-02-08T09:17:13.545Z,8.37
2023-02-08T09:19:42.890Z,8.50
2023-02-08T09:22:11.254Z,8.60
2023-02-08T09:24:40.485Z,8.53
2023-02-08T09:27:08.736Z,8.24
2023-02-08T09:29:36.758Z,7.97
2023-02-08T09:32:05.198Z,8.11
2023-02-08T09:34:33.250Z,7.99
2023-02-08T09:37:01.567Z,8.48
2023-02-08T09:39:29.513Z,9.09
2023-02-08T09:42:16.678Z,8.64
2023-02-08T09:45:03.306Z,9.45
2023-02-08T09:47:36.716Z,9.49
2023-02-08T09:50:20.329Z,9.93
2023-02-08T09:53:36.339Z,10.05
2023-02-08T09:56:12.131Z,10.08
2023-02-08T09:58:46.891Z,9.96
2023-02-08T10:01:28.468Z,10.14
2023-02-08T10:04:14.618Z,10.22
2023-02-08T10:06:42.588Z,10.46
2023-02-08T10:09:14.856Z,10.27
2023-02-08T10:12:01.204Z,10.82
2023-02-08T10:15:03.626Z,10.88
2023-02-08T10:17:43.787Z,10.83
2023-02-08T10:20:36.508Z,10.70
2023-02-08T10:23:19.872Z,11.54
2023-02-08T10:26:07.234Z,10.35
2023-02-08T10:29:25.912Z,10.69
2023-02-08T10:31:54.118Z,11.04
2023-02-08T10:34:46.110Z,10.77
2023-02-08T10:37:28.360Z,10.51
2023-02-08T10:40:00.950Z,10.88
2023-02-08T10:42:36.776Z,10.63
2023-02-08T10:45:24.664Z,11.45
2023-02-08T10:48:02.488Z,11.07
2023-02-08T10:50:47.621Z,11.29
2023-02-08T10:53:23.492Z,12.14
2023-02-08T10:55:59.190Z,12.02
2023-02-08T10:58:30.942Z,11.96
2023-02-08T11:01:04.294Z,12.73
2023-02-08T11:03:37.982Z,12.69
2023-02-08T11:06:25.384Z,12.60
2023-02-08T11:08:59.604Z,12.51
2023-02-08T11:11:29.914Z,12.96
2023-02-08T11:14:15.131Z,12.88
2023-02-08T11:16:57.047Z,13.01
2023-02-08T11:19:46.502Z,12.62
2023-02-08T11:22:21.201Z,13.18
2023-02-08T11:25:06.321Z,13.32
2023-02-08T11:27:45.186Z,12.73
2023-02-08T11:30:18.570Z,13.65
2023-02-08T11:33:15.969Z,13.61
2023-02-08T11:36:03.139Z,13.69
2023-02-08T11:38:36.235Z,13.45
2023-02-08T11:41:16.251Z,12.62
2023-02-08T11:43:52.011Z,13.41
2023-02-08T11:46:28.666Z,13.35
2023-02-08T11:49:04.830Z,13.34
2023-02-08T11:51:36.503Z,13.10
2023-02-08T11:54:06.309Z,12.62
2023-02-08T11:56:35.700Z,13.54
2023-02-08T11:59:15.537Z,13.46
2023-02-08T12:01:44.336Z,12.33
2023-02-08T12:04:15.045Z,13.27
2023-02-08T12:07:01.866Z,13.62
2023-02-08T12:09:57.486Z,12.20
2023-02-08T12:12:25.840Z,13.69
2023-02-08T12:14:53.915Z,13.45
2023-02-08T12:17:48.399Z,13.00
2023-02-08T12:20:23.546Z,12.90
2023-02-08T12:23:03.056Z,11.79
2023-02-08T12:25:57.811Z,11.97
2023-02-08T12:28:36.254Z,11.89
2023-02-08T12:31:19.304Z,13.12
2023-02-08T12:34:02.257Z,13.32
2023-02-08T12:37:18.974Z,12.42
2023-02-08T12:40:34.946Z,12.97
2023-02-08T12:43:39.924Z,13.79
2023-02-08T12:46:26.345Z,14.37
2023-02-08T12:49:07.294Z,12.56
2023-02-08T12:52:05.527Z,13.45
2023-02-08T12:54:50.696Z,14.12
2023-02-08T12:57:22.864Z,14.36
2023-02-08T12:59:57.833Z,14.60
2023-02-08T13:02:29.281Z,14.73
2023-02-08T13:05:02.996Z,14.42
2023-02-08T13:07:40.545Z,13.10
2023-02-08T13:10:29.766Z,12.51
2023-02-08T13:13:06.587Z,12.04
2023-02-08T13:16:01.021Z,12.33
2023-02-08T13:18:40.369Z,11.16
2023-02-08T13:21:22.697Z,12.60
2023-02-08T13:23:53.290Z,13.46
2023-02-08T13:26:35.759Z,13.32
2023-02-08T13:29:05.358Z,13.21
2023-02-08T13:31:47.191Z,13.09
2023-02-08T13:34:36.198Z,13.24
2023-02-08T13:37:24.715Z,13.49
2023-02-08T13:40:08.750Z,13.57
2023-02-08T13:42:49.299Z,13.43
2023-02-08T13:45:31.249Z,13.52
2023-02-08T13:48:02.520Z,13.60
2023-02-08T13:50:39.772Z,13.57
2023-02-08T13:53:08.118Z,14.35
2023-02-08T13:55:51.104Z,14.09
2023-02-08T13:58:43.130Z,14.39
2023-02-08T14:01:19.260Z,14.47
2023-02-08T14:04:07.525Z,14.63
2023-02-08T14:06:43.979Z,14.69
2023-02-08T14:09:33.505Z,14.28
2023-02-08T14:12:12.477Z,14.39
2023-02-08T14:14:40.640Z,14.13
2023-02-08T14:17:20.749Z,13.72
2023-02-08T14:20:02.581Z,14.28
2023-02-08T14:22:48.280Z,14.35
2023-02-08T14:25:16.070Z,14.54
2023-02-08T14:27:55.436Z,14.84
2023-02-08T14:30:51.119Z,14.64
2023-02-08T14:33:25.857Z,14.17
2023-02-08T14:36:03.564Z,14.13
2023-02-08T14:38:54.715Z,14.16
2023-02-08T14:42:00.257Z,14.53
2023-02-08T14:44:43.574Z,14.21
2023-02-08T14:47:26.931Z,13.91
2023-02-08T14:50:13.660Z,14.41
2023-02-08T14:52:56.406Z,14.59
2023-02-08T14:55:28.157Z,14.33
2023-02-08T14:57:58.390Z,14.37
2023-02-08T15:00:34.156Z,14.88
2023-02-08T15:03:05.299Z,15.46
2023-02-08T15:05:42.148Z,15.99
2023-02-08T15:08:11.148Z,17.47
2023-02-08T15:10:45.316Z,17.77
2023-02-08T15:13:19.071Z,18.29
2023-02-08T15:15:53.646Z,17.30
2023-02-08T15:18:33.230Z,17.62
2023-02-08T15:21:19.288Z,17.49
2023-02-08T15:24:08.173Z,17.42
2023-02-08T15:26:36.407Z,17.45
2023-02-08T15:29:04.388Z,17.02
2023-02-08T15:31:34.311Z,17.58
2023-02-08T15:34:03.276Z,17.11
2023-02-08T15:36:35.036Z,17.14
2023-02-08T15:39:24.823Z,17.11
2023-02-08T15:41:58.480Z,17.26
2023-02-08T15:44:30.604Z,16.97
2023-02-08T15:47:16.498Z,16.98
2023-02-08T15:49:50.068Z,16.61
2023-02-08T15:52:21.766Z,16.39
2023-02-08T15:54:50.120Z,15.92
2023-02-08T15:57:44.478Z,14.11
2023-02-08T16:00:44.412Z,13.85
2023-02-08T16:03:25.882Z,12.68
2023-02-08T16:06:02.985Z,11.28
2023-02-08T16:08:34.566Z,10.77
2023-02-08T16:11:12.965Z,10.29
2023-02-08T16:13:48.235Z,10.09
2023-02-08T16:16:26.762Z,9.96
2023-02-08T16:19:04.281Z,9.65
2023-02-08T16:21:38.616Z,9.17
2023-02-08T16:24:12.916Z,9.70
2023-02-08T16:26:45.095Z,9.34
2023-02-08T16:29:40.026Z,9.51
2023-02-08T16:32:20.902Z,9.14
2023-02-08T16:34:49.360Z,8.90
2023-02-08T16:37:35.538Z,8.99
2023-02-08T16:40:40.686Z,8.83
2023-02-08T16:43:19.143Z,8.93
2023-02-08T16:46:21.672Z,8.71
2023-02-08T16:48:57.594Z,8.63
2023-02-08T16:51:29.004Z,8.42
2023-02-08T16:54:02.914Z,8.40
2023-02-08T16:56:31.299Z,8.40
2023-02-08T16:58:59.290Z,8.15
2023-02-08T17:01:28.719Z,7.90
2023-02-08T17:03:56.766Z,7.96
2023-02-08T17:06:29.995Z,7.92
2023-02-08T17:08:59.974Z,7.88
2023-02-08T17:11:29.585Z,7.44
2023-02-08T17:13:58.863Z,7.07
2023-02-08T17:16:29.737Z,7.32
2023-02-08T17:18:58.837Z,7.37
2023-02-08T17:21:29.350Z,7.18
2023-02-08T17:23:57.986Z,7.09
2023-02-08T17:26:34.630Z,6.91
2023-02-08T17:29:02.837Z,6.90
2023-02-08T17:31:31.786Z,6.91
2023-02-08T17:34:04.633Z,7.07
2023-02-08T17:36:35.425Z,6.97
2023-02-08T17:39:05.570Z,7.04
2023-02-08T17:41:34.046Z,6.69
2023-02-08T17:44:02.163Z,6.66
2023-02-08T17:46:33.622Z,6.63
2023-02-08T17:49:02.038Z,6.64
2023-02-08T17:51:31.260Z,6.48
2023-02-08T17:53:59.554Z,6.33
2023-02-08T17:56:28.846Z,6.49
2023-02-08T17:58:56.910Z,6.46
2023-02-08T18:01:27.400Z,6.38
2023-02-08T18:03:55.658Z,6.40
2023-02-08T18:06:25.183Z,6.40
2023-02-08T18:08:54.978Z,6.27
2023-02-08T18:11:24.353Z,6.22
2023-02-08T18:13:54.003Z,6.04
2023-02-08T18:16:25.341Z,6.09
2023-02-08T18:18:59.372Z,5.95
2023-02-08T18:21:27.799Z,5.91
2023-02-08T18:23:55.900Z,5.89
2023-02-08T18:26:25.368Z,5.87
2023-02-08T18:28:53.618Z,5.79
2023-02-08T18:31:22.552Z,5.70
2023-02-08T18:33:51.231Z,5.79
2023-02-08T18:36:21.012Z,5.92
2023-02-08T18:38:51.868Z,5.47
2023-02-08T18:41:26.376Z,5.45
2023-02-08T18:43:56.706Z,5.46
2023-02-08T18:46:26.951Z,5.46
2023-02-08T18:48:55.251Z,5.54
2023-02-08T18:51:49.064Z,5.58
2023-02-08T18:54:18.512Z,5.52
2023-02-08T18:56:47.203Z,5.59
2023-02-08T18:59:15.026Z,5.55
2023-02-08T19:01:43.377Z,5.62
2023-02-08T19:04:11.207Z,5.57
2023-02-08T19:06:39.474Z,5.64
2023-02-08T19:09:08.293Z,5.47
2023-02-08T19:11:39.194Z,5.55
2023-02-08T19:14:11.492Z,5.59
2023-02-08T19:16:40.473Z,5.55
2023-02-08T19:19:08.504Z,5.52
2023-02-08T19:21:37.368Z,5.14
2023-02-08T19:24:06.129Z,5.33
2023-02-08T19:26:39.991Z,5.28
2023-02-08T19:29:14.074Z,5.39
2023-02-08T19:31:43.667Z,5.21
2023-02-08T19:34:12.704Z,5.53
2023-02-08T19:36:45.192Z,5.39
2023-02-08T19:39:16.530Z,5.13
2023-02-08T19:41:45.759Z,5.36
2023-02-08T19:44:17.623Z,5.55
2023-02-08T19:46:51.840Z,5.52
2023-02-08T19:49:19.713Z,5.42
2023-02-08T19:51:48.004Z,5.23
2023-02-08T19:54:18.162Z,5.22
2023-02-08T19:56:47.535Z,5.39
2023-02-08T19:59:21.112Z,5.35
2023-02-08T20:01:49.703Z,5.17
2023-02-08T20:04:17.831Z,5.14
2023-02-08T20:06:46.457Z,5.00
2023-02-08T20:09:16.507Z,5.00
2023-02-08T20:11:56.399Z,5.06
2023-02-08T20:14:26.126Z,4.95
2023-02-08T20:16:54.633Z,5.07
2023-02-08T20:19:22.645Z,5.18
2023-02-08T20:21:50.790Z,5.27
2023-02-08T20:24:19.196Z,5.16
2023-02-08T20:26:48.327Z,5.00
2023-02-08T20:29:17.126Z,5.03
2023-02-08T20:31:48.132Z,5.00
2023-02-08T20:34:18.953Z,4.94
2023-02-08T20:37:07.348Z,4.90
2023-02-08T20:39:37.549Z,4.63
2023-02-08T20:42:06.334Z,4.70
2023-02-08T20:44:34.538Z,4.78
2023-02-08T20:47:02.622Z,4.65
2023-02-08T20:49:32.642Z,4.51
2023-02-08T20:52:00.795Z,4.58
2023-02-08T20:54:29.124Z,4.69
2023-02-08T20:56:57.534Z,4.82
2023-02-08T20:59:26.340Z,4.66
2023-02-08T21:01:54.859Z,4.74
2023-02-08T21:04:23.785Z,4.82
2023-02-08T21:06:52.481Z,4.85
2023-02-08T21:09:21.179Z,4.62
2023-02-08T21:11:49.874Z,4.64
2023-02-08T21:14:21.066Z,4.63
2023-02-08T21:16:52.007Z,4.49
2023-02-08T21:19:20.933Z,4.41
2023-02-08T21:21:54.244Z,4.21
2023-02-08T21:24:24.132Z,4.42
2023-02-08T21:26:56.572Z,4.41
2023-02-08T21:29:25.362Z,4.17
2023-02-08T21:31:54.828Z,4.33
2023-02-08T21:34:23.339Z,4.36
2023-02-08T21:36:51.350Z,4.40
2023-02-08T21:39:19.899Z,4.48
2023-02-08T21:41:48.513Z,4.58
2023-02-08T21:44:16.818Z,4.19
2023-02-08T21:46:44.884Z,4.46
2023-02-08T21:49:31.839Z,4.48
2023-02-08T21:52:19.200Z,4.42
2023-02-08T21:54:53.303Z,4.44
2023-02-08T21:57:26.018Z,4.22
2023-02-08T21:59:58.842Z,4.36
2023-02-08T22:02:29.768Z,4.34
2023-02-08T22:05:21.133Z,4.38
2023-02-08T22:07:54.707Z,4.35
2023-02-08T22:10:26.073Z,4.45
2023-02-08T22:12:55.674Z,4.41
2023-02-08T22:15:28.228Z,4.26
2023-02-08T22:17:58.873Z,4.30
2023-02-08T22:20:27.653Z,4.29
2023-02-08T22:22:55.811Z,4.21
2023-02-08T22:25:24.479Z,4.19
2023-02-08T22:27:52.540Z,4.20
2023-02-08T22:30:21.393Z,4.29
2023-02-08T22:32:49.823Z,4.36
2023-02-08T22:35:19.093Z,4.23
2023-02-08T22:37:47.123Z,4.50
2023-02-08T22:40:15.720Z,4.15
2023-02-08T22:42:43.680Z,4.37
2023-02-08T22:45:12.799Z,4.45
2023-02-08T22:47:40.760Z,4.34
2023-02-08T22:50:10.318Z,4.56
2023-02-08T22:52:38.515Z,4.45
2023-02-08T22:55:07.970Z,4.40
2023-02-08T22:57:36.712Z,4.37
2023-02-08T23:00:07.872Z,4.58
2023-02-08T23:02:36.168Z,4.44
2023-02-08T23:05:04.804Z,4.43
2023-02-08T23:07:33.234Z,4.38
2023-02-08T23:10:01.717Z,4.37
2023-02-08T23:12:30.635Z,4.23
2023-02-08T23:14:59.036Z,4.33
2023-02-08T23:17:27.347Z,4.22
2023-02-08T23:19:55.765Z,4.27
2023-02-08T23:22:23.789Z,4.25
2023-02-08T23:24:52.202Z,4.23
2023-02-08T23:27:20.205Z,4.24
2023-02-08T23:29:48.728Z,4.13
2023-02-08T23:32:16.808Z,4.11
2023-02-08T23:34:45.244Z,4.20
2023-02-08T23:37:13.209Z,4.14
2023-02-08T23:39:41.683Z,4.06
2023-02-08T23:42:25.624Z,3.98
2023-02-08T23:44:58.776Z,3.98
2023-02-08T23:47:28.737Z,3.99
2023-02-08T23:49:57.158Z,3.92
2023-02-08T23:52:25.215Z,4.13
2023-02-08T23:54:53.650Z,4.09
2023-02-08T23:57:21.639Z,4.19
2023-02-08T23:59:50.178Z,4.18
